Latest Coastal Weather Observations for Christmas Island

IDW60701

Issued at 6:12 pm WST Saturday 4 July 2015 (issued every 10 minutes, with the page automatically refreshed every 10 minutes)

About coastal observations | Map of coastal stations | Coastal observations for WA | Marine services | Other Formats
Station Details ID: 200790 Name: CHRISTMAS ISLAND AERO Lat: -10.45 Lon: 105.69 Height: 261.0 m
Data from the previous 72 hours. | See also: Recent months at Christmas Island
Date/Time
WST
Temp

°C
Wind Pressure Rain
since 9am
mm
Weather Cloud Vis
km
Sea
Height
m
Swell
Dir
 
Speed
knots
Gust
knots
hPa Trend Height
m
Period
s
Dir
04/06:00pm 23.3 ESE 10 14 1014.2 - 1.0 - Partly cloudy 10 - - - -
04/05:00pm 22.5 ENE 11 15 1014.1 - 1.0 - Partly cloudy 10 - - - -
04/04:54pm 22.4 ESE 9 16 1014.0 - 1.0 - Partly cloudy 7 - - - -
04/04:41pm 23.0 ENE 8 12 1013.9 - 0.4 - Partly cloudy 10 - - - -
04/04:40pm 22.9 ENE 8 12 1013.9 - 0.4 - Partly cloudy 10 - - - -
04/04:25pm 22.9 E 11 16 1013.9 - 0.4 - Partly cloudy 9 - - - -
04/04:00pm 24.4 ESE 11 18 1012.5 - 0.0 - Cloudy 10 - - - -
04/03:24pm 23.6 ESE 11 19 1014.3 - 0.0 - Partly cloudy 10 - - - -
04/03:00pm 23.9 SE 13 21 1014.3 - 0.0 - Partly cloudy 10 - - - -
04/02:29pm 23.7 SE 12 19 1014.6 - 0.0 - Partly cloudy 10 - - - -
04/02:00pm 24.7 ESE 13 17 1015.1 - 0.0 - Partly cloudy 10 - - - -
04/01:00pm 25.2 ESE 11 17 1014.3 - 0.0 - Cloudy 10 - - - -
04/12:00pm 24.5 ESE 11 16 1016.1 - 0.0 - Partly cloudy 10 - - - -
04/11:52am 24.5 ESE 12 17 1016.2 - 0.0 - Cloudy 10 - - - -
04/11:00am 23.1 ESE 11 19 1016.5 - 0.0 - Cloudy 10 - - - -
04/10:17am 22.5 SE 13 24 1016.6 - 0.0 - Partly cloudy 10 - - - -
04/10:00am 21.9 S 6 9 1014.7 - 14.8 - Cloudy 3 - - - -
04/09:49am 22.2 ESE 13 21 1016.6 - 12.4 - Partly cloudy 6 - - - -
04/09:00am 22.8 SE 13 19 1015.9 - 12.4 - Partly cloudy 10 - - - -
04/08:06am 22.4 SE 14 22 1015.3 - 12.4 - Partly cloudy 10 - - - -
04/08:00am 22.3 SE 13 22 1015.2 - 12.4 - Partly cloudy 10 - - - -
04/07:45am 22.2 SE 13 19 1015.0 - 12.2 - - 10 - - - -
04/07:36am 22.3 ESE 14 24 1014.9 - 12.2 - Partly cloudy 7 - - - -
04/07:10am 22.0 SE 12 18 1014.7 - 5.6 - Partly cloudy 6 - - - -
04/07:00am 22.7 ESE 13 20 1013.1 - 4.8 - Cloudy 10 - - - -
04/06:39am 23.2 ESE 11 18 1014.4 - 4.8 - Partly cloudy 10 - - - -
04/06:00am 23.9 E 10 19 1014.3 - 4.0 - Partly cloudy 10 - - - -
04/05:00am 23.6 ESE 10 14 1014.2 - 4.0 - Partly cloudy 10 - - - -
04/04:00am 23.4 ESE 9 13 1012.8 - 4.0 - Cloudy 10 - - - -
04/03:00am 23.6 ESE 9 14 1014.6 - 4.0 - Partly cloudy 10 - - - -
04/02:00am 23.7 ESE 11 16 1015.1 - 4.0 - Partly cloudy 10 - - - -
04/01:56am 23.7 ESE 11 16 1015.1 - 4.0 - Partly cloudy 10 - - - -
04/01:39am 23.6 ESE 10 14 1015.1 - 4.0 - Partly cloudy 10 - - - -
04/01:37am 23.6 ESE 10 14 1015.1 - 4.0 - Partly cloudy 10 - - - -
04/01:00am 23.3 ESE 9 12 1013.9 - 4.0 - Partly cloudy 10 - - - -
04/12:53am 23.2 SE 8 11 1015.4 - 4.0 - Partly cloudy 10 - - - -
04/12:00am 23.0 ESE 7 13 1015.8 - 4.0 - Partly cloudy 10 - - - -
 
Date/Time
WST
Temp

°C
Wind Pressure Rain
since 9am
mm
Weather Cloud Vis
km
Sea
Height
m
Swell
Dir
 
Speed
knots
Gust
knots
hPa Trend Height
m
Period
s
Dir
03/11:00pm 23.5 E 6 10 1016.2 - 4.0 - Partly cloudy 10 - - - -
03/10:00pm 23.3 E 6 9 1014.3 - 4.0 - Cloudy 10 - - - -
03/09:47pm 23.0 E 6 9 1015.9 - 4.0 - Partly cloudy 10 - - - -
03/09:00pm 23.2 SE 11 17 1015.9 - 4.0 - Partly cloudy 10 - - - -
03/08:51pm 23.3 ESE 11 19 1015.9 - 4.0 - Partly cloudy 10 - - - -
03/08:01pm 23.0 SE 8 11 1015.4 - 4.0 - Partly cloudy 10 - - - -
03/08:00pm 23.1 SE 8 11 1015.4 - 4.0 - Partly cloudy 10 - - - -
03/07:45pm 23.3 SE 9 13 1015.2 - 4.0 - Partly cloudy 10 - - - -
03/07:00pm 23.5 SE 9 12 1013.2 - 4.0 - Partly cloudy 10 - - - -
03/06:00pm 24.1 SE 9 12 1014.2 - 4.0 - Partly cloudy 10 - - - -
03/05:55pm 24.1 SE 8 12 1014.2 - 4.0 - Partly cloudy 10 - - - -
03/05:42pm 24.2 SE 9 12 1014.1 - 4.0 - Partly cloudy 10 - - - -
03/05:03pm 24.4 ESE 9 13 1013.9 - 4.0 - Partly cloudy 10 - - - -
03/05:00pm 24.4 ESE 9 14 1013.9 - 4.0 - Partly cloudy 10 - - - -
03/04:00pm 24.0 SE 9 12 1012.5 - 4.0 - Cloudy 10 - - - -
03/03:00pm 24.2 SE 10 14 1014.6 - 4.0 - Partly cloudy 10 - - - -
03/02:17pm 24.4 SE 10 16 1015.1 - 4.0 - Partly cloudy 10 - - - -
03/02:00pm 23.9 SE 10 14 1015.3 - 4.0 - Partly cloudy 10 - - - -
03/01:00pm 22.9 SSE 9 13 1014.7 - 4.0 - Cloudy 10 - - - -
03/12:32pm 21.7 SE 9 15 1016.6 - 4.0 - Partly cloudy 7 - - - -
03/12:03pm 21.3 SE 16 24 1017.2 - 2.4 - Partly cloudy 5 - - - -
03/12:00pm 21.4 SE 16 24 1017.2 - 1.6 - Partly cloudy 10 - - - -
03/11:56am 22.3 ESE 19 24 1017.0 - 1.2 - Partly cloudy 10 - - - -
03/11:00am 21.2 ESE 4 6 1017.4 - 1.2 - Partly cloudy 10 - - - -
03/10:57am 21.3 ESE 5 8 1017.4 - 1.2 - Partly cloudy 10 - - - -
03/10:52am 21.3 ESE 6 8 1017.6 - 1.2 - Partly cloudy 10 - - - -
03/10:00am 22.4 SE 17 26 1016.2 - 0.6 - Cloudy 2 - - - -
03/09:57am 22.6 SE 16 26 1017.5 - 0.2 - Partly cloudy 2 - - - -
03/09:56am 22.7 SE 15 24 1017.5 - 0.0 - Partly cloudy 4 - - - -
03/09:55am 22.9 SE 15 24 1017.5 - 0.0 - Partly cloudy 10 - - - -
03/09:00am 24.7 ESE 9 14 1017.1 - 0.0 - Partly cloudy 10 - - - -
03/08:00am 23.7 SE 7 11 1016.4 - 0.0 - Partly cloudy 10 - - - -
03/07:00am 22.9 SE 6 8 1014.5 - 0.0 - Partly cloudy 10 - - - -
03/06:00am 22.9 SE 7 10 1015.5 - 0.0 - Partly cloudy 10 - - - -
03/05:00am 22.7 SE 6 9 1015.4 - 0.0 - Partly cloudy 10 - - - -
03/04:00am 23.0 SE 9 12 1014.3 - 0.0 - - 10 - - - -
03/03:00am 22.9 SE 7 12 1016.1 - 0.0 - - 10 - - - -
03/02:00am 22.7 SE 6 9 1016.5 - 0.0 - - 10 - - - -
03/01:00am 23.1 SE 8 11 1015.5 - 0.0 - - 10 - - - -
03/12:00am 23.1 SE 7 11 1017.3 - 0.0 - - 10 - - - -
 
Date/Time
WST
Temp

°C
Wind Pressure Rain
since 9am
mm
Weather Cloud Vis
km
Sea
Height
m
Swell
Dir
 
Speed
knots
Gust
knots
hPa Trend Height
m
Period
s
Dir
02/11:00pm 23.1 SE 7 12 1017.6 - 0.0 - - 10 - - - -
02/10:00pm 23.5 SE 8 13 1016.0 - 0.0 - - 10 - - - -
02/09:00pm 23.6 SE 9 14 1016.9 - 0.0 - - 10 - - - -
02/08:00pm 23.4 SE 8 12 1016.4 - 0.0 - - 10 - - - -
02/07:00pm 23.4 SE 9 12 1014.5 - 0.0 - Mostly clear 10 - - - -
02/06:00pm 24.2 SE 10 17 1015.6 - 0.0 - Partly cloudy 10 - - - -
02/05:00pm 24.9 SE 11 15 1015.3 - 0.0 - Partly cloudy 10 - - - -
02/04:00pm 25.6 SE 11 16 1014.0 - 0.0 - - 10 - - - -
02/03:00pm 25.5 SE 12 18 1016.1 - 0.0 - Partly cloudy 10 - - - -
02/02:00pm 25.7 ESE 12 18 1016.8 - 0.0 - Partly cloudy 10 - - - -
02/01:38pm 25.7 ESE 12 15 1017.2 - 0.0 - Partly cloudy 10 - - - -
02/01:20pm 25.4 ESE 13 16 1017.4 - 0.0 - Partly cloudy 5 - - - -
02/01:00pm 25.7 SE 12 16 1016.3 - 0.0 - Mostly clear 10 - - - -
02/12:00pm 26.0 ESE 11 14 1018.4 - 0.0 - - 10 - - - -
02/11:00am 26.0 ESE 11 16 1019.1 - 0.0 - - 10 - - - -
02/10:00am 25.0 SE 12 17 1017.8 - 0.0 - Mostly clear 10 - - - -
02/09:00am 24.7 SE 9 13 1019.0 - 0.0 - Partly cloudy 10 - - - -
02/08:00am 23.2 SE 8 11 1018.1 - 0.0 - Partly cloudy 10 - - - -
02/07:00am 22.7 SE 8 14 1016.3 - 0.0 - Mostly clear 10 - - - -
02/06:00am 22.6 SE 8 12 1017.4 - 0.0 - Partly cloudy 10 - - - -
02/05:00am 22.7 SE 8 11 1017.2 - 0.0 - Partly cloudy 10 - - - -
02/04:00am 22.7 SE 8 10 1015.7 - 0.0 - Partly cloudy 10 - - - -
02/03:00am 22.5 SE 6 11 1017.6 - 0.0 - Partly cloudy 10 - - - -
02/02:00am 22.8 SE 7 9 1018.3 - 0.0 - Partly cloudy 10 - - - -
02/01:00am 22.8 SE 7 11 1017.1 - 0.0 - Mostly clear 10 - - - -
02/12:00am 22.8 SE 6 8 1018.8 - 0.0 - Partly cloudy 10 - - - -
 
Date/Time
WST
Temp

°C
Wind Pressure Rain
since 9am
mm
Weather Cloud Vis
km
Sea
Height
m
Swell
Dir
 
Speed
knots
Gust
knots
hPa Trend Height
m
Period
s
Dir
01/11:00pm 23.2 SE 6 9 1019.0 - 0.0 - Partly cloudy 10 - - - -
01/10:00pm 23.3 SE 7 10 1017.5 - 0.0 - Mostly cloudy 10 - - - -
01/09:00pm 23.4 SE 7 10 1018.5 - 0.0 - Partly cloudy 10 - - - -
01/08:00pm 23.6 SE 8 10 1017.9 - 0.0 - Partly cloudy 10 - - - -

Other Formats:

Comma delimited format used in spreadsheet applications
http://www.bom.gov.au/fwo/IDW60701/IDW60701.96995.axf

JavaScript Object Notation format (JSON) in row-major order
http://www.bom.gov.au/fwo/IDW60701/IDW60701.96995.json